Time;durP1;ratioP1;P1;durP2;ratioP2;P2;SDS_P1;SDS_P2;PMS_P1;PMS_P2;Temp;Humidity;BMP_temperature;BMP_pressure;BME280_temperature;BME280_humidity;BME280_pressure;Samples;Min_cycle;Max_cycle;Signal;HPM_P1;HPM_P2
2023/03/29 00:02:20;;;;;;;14.52;7.25;;;10.10;99.90;;;;;;4953325;28;20038;-78
2023/03/29 00:04:45;;;;;;;22.88;7.75;;;10.10;99.90;;;;;;4967622;28;20398;-78
2023/03/29 00:07:13;;;;;;;16.08;7.00;;;10.10;99.90;;;;;;4980138;28;20027;-78
2023/03/29 00:09:38;;;;;;;14.50;7.28;;;10.20;99.90;;;;;;4968618;28;20034;-78
2023/03/29 00:12:04;;;;;;;15.68;6.25;;;10.20;99.90;;;;;;4962283;28;20674;-78
2023/03/29 00:14:30;;;;;;;11.40;5.90;;;10.20;99.90;;;;;;4963760;28;20035;-77
2023/03/29 00:16:56;;;;;;;10.55;5.40;;;10.20;99.90;;;;;;4964012;28;20616;-78
2023/03/29 00:19:22;;;;;;;13.88;6.55;;;10.20;99.90;;;;;;4959691;28;20058;-78
2023/03/29 00:21:48;;;;;;;19.65;7.43;;;10.20;99.90;;;;;;4944689;28;20136;-78
2023/03/29 00:24:13;;;;;;;15.98;7.60;;;10.20;99.90;;;;;;4946312;28;20581;-78
2023/03/29 00:26:39;;;;;;;22.80;8.80;;;10.20;99.90;;;;;;4963760;28;20045;-78
2023/03/29 00:29:05;;;;;;;24.83;9.77;;;10.20;99.90;;;;;;4968935;28;20065;-77
2023/03/29 00:31:31;;;;;;;16.88;8.60;;;10.10;99.90;;;;;;4967310;28;20158;-78
2023/03/29 00:33:56;;;;;;;22.38;9.57;;;10.20;99.90;;;;;;4965901;28;20467;-79
2023/03/29 00:36:22;;;;;;;21.70;9.10;;;10.20;99.90;;;;;;4949410;28;20034;-78
2023/03/29 00:38:48;;;;;;;20.58;8.57;;;10.20;99.90;;;;;;4963943;28;20103;-78
2023/03/29 00:41:14;;;;;;;17.20;8.20;;;10.20;99.90;;;;;;4967377;28;20530;-78
2023/03/29 00:43:59;;;;;;;23.02;8.73;;;10.20;99.90;;;;;;4966912;28;20046;-78
2023/03/29 00:46:26;;;;;;;13.52;7.57;;;10.20;99.90;;;;;;4955651;28;20052;-78
2023/03/29 00:48:53;;;;;;;17.90;8.10;;;10.20;99.90;;;;;;4960810;28;20035;-77
2023/03/29 00:51:21;;;;;;;20.45;8.32;;;10.20;99.90;;;;;;4942521;28;20030;-78
2023/03/29 00:53:55;;;;;;;17.33;7.90;;;10.20;99.90;;;;;;4965920;28;20126;-77
2023/03/29 00:56:35;;;;;;;28.80;9.23;;;10.20;99.90;;;;;;4967410;28;20048;-78
2023/03/29 00:59:08;;;;;;;26.33;9.82;;;10.20;99.90;;;;;;4964888;28;20070;-77
2023/03/29 01:01:53;;;;;;;24.33;9.40;;;10.20;99.90;;;;;;4949161;28;20054;-78
2023/03/29 01:04:31;;;;;;;20.70;8.77;;;10.20;99.90;;;;;;4964563;28;20042;-78
2023/03/29 01:07:07;;;;;;;27.50;9.20;;;10.20;99.90;;;;;;4965361;28;20045;-78
2023/03/29 01:09:37;;;;;;;23.00;9.20;;;10.30;99.90;;;;;;4965721;28;20074;-78
2023/03/29 01:12:11;;;;;;;22.40;8.55;;;10.20;99.90;;;;;;4965797;28;20046;-77
2023/03/29 01:14:47;;;;;;;26.08;8.90;;;10.20;99.90;;;;;;4947222;29;20123;-77
2023/03/29 01:17:13;;;;;;;22.38;7.85;;;10.20;99.90;;;;;;4962657;28;20110;-78
2023/03/29 01:19:56;;;;;;;19.80;8.68;;;10.20;99.90;;;;;;4946445;28;20035;-78
2023/03/29 01:22:38;;;;;;;24.00;7.90;;;10.20;99.90;;;;;;4958215;28;20522;-78
2023/03/29 01:25:19;;;;;;;21.77;7.15;;;10.20;99.90;;;;;;4957056;28;20367;-78
2023/03/29 01:27:50;;;;;;;16.90;7.40;;;10.20;99.90;;;;;;4950230;28;20035;-78
2023/03/29 01:30:30;;;;;;;24.17;7.75;;;10.30;99.90;;;;;;4975023;28;20089;-78
2023/03/29 01:33:20;;;;;;;20.73;8.25;;;10.20;99.90;;;;;;4955673;28;20054;-79
2023/03/29 01:35:53;;;;;;;20.75;6.85;;;10.20;99.90;;;;;;4962045;28;20031;-78
2023/03/29 01:38:30;;;;;;;18.10;6.82;;;10.30;99.90;;;;;;4950294;28;20035;-78
2023/03/29 01:40:55;;;;;;;17.52;7.28;;;10.30;99.90;;;;;;4951679;28;20111;-79
2023/03/29 01:43:38;;;;;;;16.98;7.68;;;10.30;99.90;;;;;;4945465;28;20137;-78
2023/03/29 01:46:06;;;;;;;19.23;6.35;;;10.20;99.90;;;;;;4966789;28;20035;-78
2023/03/29 01:48:38;;;;;;;19.30;6.45;;;10.30;99.90;;;;;;4958923;28;20142;-78
2023/03/29 01:51:32;;;;;;;23.80;6.75;;;10.30;99.90;;;;;;4958815;28;20189;-78
2023/03/29 01:54:06;;;;;;;18.60;6.30;;;10.20;99.90;;;;;;4956628;28;20058;-78
2023/03/29 01:56:38;;;;;;;16.80;6.70;;;10.20;99.90;;;;;;4966166;28;20115;-78
2023/03/29 01:59:10;;;;;;;15.70;5.72;;;10.20;99.90;;;;;;4960765;28;20046;-78
2023/03/29 02:01:42;;;;;;;18.65;5.93;;;10.10;99.90;;;;;;4963653;28;20808;-79
2023/03/29 02:04:12;;;;;;;13.20;5.32;;;10.20;99.90;;;;;;4961486;28;20518;-77
2023/03/29 02:06:39;;;;;;;15.43;5.50;;;10.20;99.90;;;;;;4951959;28;20406;-78
2023/03/29 02:09:06;;;;;;;13.68;5.60;;;10.20;99.90;;;;;;4963098;28;20126;-77
2023/03/29 02:11:33;;;;;;;12.95;5.32;;;10.10;99.90;;;;;;4957360;28;20074;-78
2023/03/29 02:13:59;;;;;;;17.23;5.57;;;10.10;99.90;;;;;;4964565;28;20031;-78
2023/03/29 02:16:26;;;;;;;12.13;5.53;;;10.10;99.90;;;;;;4964152;28;20902;-77
2023/03/29 02:18:55;;;;;;;15.35;5.43;;;10.10;99.90;;;;;;4959274;28;20984;-78
2023/03/29 02:21:38;;;;;;;13.68;5.05;;;10.10;99.90;;;;;;4973714;28;20551;-78
2023/03/29 02:24:07;;;;;;;10.57;5.65;;;10.10;99.90;;;;;;4954388;28;20085;-77
2023/03/29 02:26:33;;;;;;;12.63;5.45;;;10.00;99.90;;;;;;4964621;28;20062;-78
2023/03/29 02:28:59;;;;;;;15.05;5.70;;;10.10;99.90;;;;;;4968264;28;20018;-78
2023/03/29 02:31:41;;;;;;;12.88;5.63;;;10.10;99.90;;;;;;4962755;28;20046;-78
2023/03/29 02:34:19;;;;;;;12.93;5.55;;;10.00;99.90;;;;;;4960296;28;20024;-78
2023/03/29 02:36:49;;;;;;;13.32;5.63;;;10.00;99.90;;;;;;4946955;28;20046;-78
2023/03/29 02:39:16;;;;;;;11.68;5.72;;;10.00;99.90;;;;;;4949185;28;20130;-78
2023/03/29 02:41:45;;;;;;;12.98;5.35;;;9.90;99.90;;;;;;4964367;28;20106;-78
2023/03/29 02:44:16;;;;;;;13.73;5.90;;;9.90;99.90;;;;;;4965566;28;20110;-78
2023/03/29 02:46:42;;;;;;;13.48;5.28;;;9.90;99.90;;;;;;4963332;28;20037;-78
2023/03/29 02:49:12;;;;;;;12.88;5.55;;;9.90;99.90;;;;;;4960729;28;20031;-78
2023/03/29 02:51:37;;;;;;;12.13;5.07;;;9.80;99.90;;;;;;4960341;28;20039;-78
2023/03/29 02:54:12;;;;;;;13.52;4.72;;;9.80;99.90;;;;;;4964108;28;20387;-78
2023/03/29 02:56:46;;;;;;;11.85;5.22;;;9.70;99.90;;;;;;4946914;28;20126;-79
2023/03/29 02:59:12;;;;;;;12.70;5.25;;;9.70;99.90;;;;;;4959585;28;20130;-78
2023/03/29 03:01:41;;;;;;;14.90;4.97;;;9.70;99.90;;;;;;4963882;28;20068;-78
2023/03/29 03:04:08;;;;;;;14.02;5.10;;;9.80;99.90;;;;;;4963265;28;20050;-78
2023/03/29 03:06:36;;;;;;;12.90;4.97;;;9.80;99.90;;;;;;4963428;28;20030;-78
2023/03/29 03:09:03;;;;;;;12.38;5.20;;;9.80;99.90;;;;;;4963304;28;20027;-77
2023/03/29 03:11:29;;;;;;;12.30;5.95;;;9.70;99.90;;;;;;4948498;28;20084;-77
2023/03/29 03:13:55;;;;;;;11.30;5.20;;;9.70;99.90;;;;;;4946245;28;20038;-78
2023/03/29 03:16:21;;;;;;;8.02;4.45;;;9.80;99.90;;;;;;4964072;28;20074;-78
2023/03/29 03:18:48;;;;;;;12.48;4.55;;;9.80;99.90;;;;;;4945696;28;20035;-78
2023/03/29 03:21:13;;;;;;;13.85;5.07;;;9.80;99.90;;;;;;4946508;28;20090;-78
2023/03/29 03:23:39;;;;;;;12.35;4.95;;;9.80;99.90;;;;;;4964514;28;20027;-78
2023/03/29 03:26:04;;;;;;;9.38;4.13;;;9.80;99.90;;;;;;4961618;28;20050;-78
2023/03/29 03:28:31;;;;;;;8.88;3.55;;;9.80;99.90;;;;;;4965527;28;20482;-77
2023/03/29 03:30:56;;;;;;;10.43;4.25;;;9.70;99.90;;;;;;4984668;28;20101;-78
2023/03/29 03:33:22;;;;;;;7.45;3.78;;;9.70;99.90;;;;;;4968419;28;20035;-78
2023/03/29 03:35:48;;;;;;;8.77;3.70;;;9.70;99.90;;;;;;4960946;28;20030;-78
2023/03/29 03:38:14;;;;;;;8.45;3.40;;;9.60;99.90;;;;;;4963270;28;20640;-77
2023/03/29 03:40:39;;;;;;;11.60;3.90;;;9.60;99.90;;;;;;4946084;28;20059;-78
2023/03/29 03:43:05;;;;;;;6.90;3.40;;;9.50;99.90;;;;;;4962677;28;20023;-78
2023/03/29 03:45:31;;;;;;;10.10;3.53;;;9.60;99.90;;;;;;4961218;28;20057;-78
2023/03/29 03:47:57;;;;;;;10.43;4.55;;;9.60;99.90;;;;;;4973144;28;20033;-78
2023/03/29 03:50:23;;;;;;;11.88;4.43;;;9.60;99.90;;;;;;4962136;28;20050;-77
2023/03/29 03:52:48;;;;;;;12.15;4.18;;;9.60;99.90;;;;;;4962650;28;20031;-77
2023/03/29 03:55:15;;;;;;;9.60;4.15;;;9.70;99.90;;;;;;4963708;28;20479;-79
2023/03/29 03:57:40;;;;;;;8.02;3.97;;;9.60;99.90;;;;;;4964581;28;20546;-78
2023/03/29 04:00:19;;;;;;;7.68;3.58;;;9.60;99.90;;;;;;4967518;28;20062;-78
2023/03/29 04:02:46;;;;;;;9.60;4.22;;;9.70;99.90;;;;;;4966296;28;20031;-78
2023/03/29 04:05:13;;;;;;;9.45;4.45;;;9.70;99.90;;;;;;4966046;28;20026;-79
2023/03/29 04:07:39;;;;;;;8.20;3.80;;;9.80;99.90;;;;;;4967593;28;20058;-77
2023/03/29 04:10:07;;;;;;;9.20;3.85;;;9.80;99.90;;;;;;4967038;28;20075;-78
2023/03/29 04:12:33;;;;;;;11.02;3.42;;;9.70;99.90;;;;;;4967612;28;20030;-77
2023/03/29 04:14:58;;;;;;;7.47;3.17;;;9.70;99.90;;;;;;4966323;28;20034;-78
2023/03/29 04:17:24;;;;;;;12.70;3.70;;;9.60;99.90;;;;;;4965230;28;20029;-78
2023/03/29 04:19:50;;;;;;;6.95;3.20;;;9.60;99.90;;;;;;4943671;28;20086;-78
2023/03/29 04:22:15;;;;;;;9.65;2.95;;;9.60;99.90;;;;;;4966888;28;20026;-78
2023/03/29 04:24:41;;;;;;;10.38;3.53;;;9.70;99.90;;;;;;4967132;28;20035;-77
2023/03/29 04:27:07;;;;;;;7.63;3.45;;;9.70;99.90;;;;;;4966077;28;20793;-77
2023/03/29 04:29:33;;;;;;;5.43;3.40;;;9.70;99.90;;;;;;4968332;28;20031;-77
2023/03/29 04:31:59;;;;;;;9.70;3.40;;;9.80;99.90;;;;;;4946812;28;20892;-78
2023/03/29 04:34:24;;;;;;;9.32;3.65;;;9.80;99.90;;;;;;4954744;28;20066;-76
2023/03/29 04:36:50;;;;;;;10.48;3.72;;;9.80;99.90;;;;;;4947262;28;20158;-78
2023/03/29 04:39:16;;;;;;;10.23;3.90;;;9.80;99.90;;;;;;4966388;28;20027;-78
2023/03/29 04:41:43;;;;;;;10.93;3.90;;;9.80;99.90;;;;;;4967506;28;20022;-78
2023/03/29 04:44:08;;;;;;;7.97;3.55;;;9.80;99.90;;;;;;4966571;28;20721;-77
2023/03/29 04:46:34;;;;;;;9.38;4.03;;;9.90;99.90;;;;;;4967400;28;20387;-78
2023/03/29 04:49:00;;;;;;;9.85;3.40;;;9.80;99.90;;;;;;4964390;28;20031;-77
2023/03/29 04:51:26;;;;;;;7.28;3.50;;;9.80;99.90;;;;;;4966331;28;20159;-77
2023/03/29 04:53:52;;;;;;;10.82;3.10;;;9.80;99.90;;;;;;4967392;28;20423;-78
2023/03/29 04:56:17;;;;;;;8.45;3.53;;;9.90;99.90;;;;;;4964953;28;20031;-77
2023/03/29 04:58:43;;;;;;;13.20;4.47;;;9.90;99.90;;;;;;4963780;28;20058;-78
2023/03/29 05:01:09;;;;;;;13.75;4.25;;;9.80;99.90;;;;;;4965801;28;20034;-78
2023/03/29 05:03:35;;;;;;;13.65;5.22;;;9.80;99.90;;;;;;4952490;28;20053;-77
2023/03/29 05:06:09;;;;;;;12.95;4.65;;;9.70;99.90;;;;;;4940005;28;20041;-77
2023/03/29 05:08:38;;;;;;;8.82;3.80;;;9.70;99.90;;;;;;4953883;28;20091;-78
2023/03/29 05:11:06;;;;;;;8.73;3.72;;;9.70;99.90;;;;;;4962603;28;20515;-78
2023/03/29 05:13:32;;;;;;;12.05;4.40;;;9.60;99.90;;;;;;4966903;28;20037;-77
2023/03/29 05:15:59;;;;;;;8.95;3.88;;;9.60;99.90;;;;;;4966813;28;20127;-78
2023/03/29 05:18:25;;;;;;;10.77;3.70;;;9.60;99.90;;;;;;4953588;28;20043;-78
2023/03/29 05:20:51;;;;;;;12.98;4.43;;;9.60;99.90;;;;;;4964661;28;20122;-77
2023/03/29 05:23:17;;;;;;;7.85;3.90;;;9.60;99.90;;;;;;4966549;28;20041;-77
2023/03/29 05:25:43;;;;;;;10.25;4.07;;;9.60;99.90;;;;;;4966857;28;20874;-78
2023/03/29 05:28:09;;;;;;;8.73;3.58;;;9.60;99.90;;;;;;4966449;28;20023;-77
2023/03/29 05:30:34;;;;;;;8.15;3.47;;;9.60;99.90;;;;;;4965792;28;20047;-77
2023/03/29 05:33:04;;;;;;;10.07;3.88;;;9.70;99.90;;;;;;4963754;28;20027;-77
2023/03/29 05:35:30;;;;;;;9.68;3.60;;;9.70;99.90;;;;;;4963538;28;20039;-77
2023/03/29 05:37:56;;;;;;;11.45;4.03;;;9.80;99.90;;;;;;4964408;28;20053;-78
2023/03/29 05:40:21;;;;;;;8.15;3.72;;;9.80;99.90;;;;;;4965459;28;20027;-78
2023/03/29 05:42:47;;;;;;;9.25;3.53;;;9.70;99.90;;;;;;4966048;28;20026;-77
2023/03/29 05:45:13;;;;;;;8.63;3.22;;;9.60;99.90;;;;;;4967009;28;20030;-78
2023/03/29 05:47:38;;;;;;;8.52;3.50;;;9.70;99.90;;;;;;4963205;28;20027;-77
2023/03/29 05:50:07;;;;;;;8.45;3.90;;;9.70;99.90;;;;;;4962797;28;20047;-78
2023/03/29 05:52:33;;;;;;;5.45;3.42;;;9.70;99.90;;;;;;4962756;28;20030;-77
2023/03/29 05:54:58;;;;;;;8.55;4.30;;;9.80;99.90;;;;;;4965715;28;20530;-78
2023/03/29 05:57:24;;;;;;;7.60;3.05;;;9.80;99.90;;;;;;4964988;28;20451;-78
2023/03/29 05:59:50;;;;;;;6.18;3.42;;;9.80;99.90;;;;;;4964588;28;20105;-78
2023/03/29 06:02:15;;;;;;;5.45;3.50;;;9.90;99.90;;;;;;4956959;28;20039;-77
2023/03/29 06:04:41;;;;;;;6.13;3.85;;;9.80;99.90;;;;;;4945291;28;20037;-78
2023/03/29 06:07:09;;;;;;;8.38;3.90;;;9.90;99.90;;;;;;4960339;28;20885;-77
2023/03/29 06:09:34;;;;;;;7.72;3.75;;;10.00;99.90;;;;;;4963268;28;20038;-78
2023/03/29 06:12:00;;;;;;;8.98;4.20;;;10.00;99.90;;;;;;4963621;28;20038;-78
2023/03/29 06:14:26;;;;;;;9.25;3.85;;;10.10;99.90;;;;;;4964836;28;20070;-78
2023/03/29 06:16:52;;;;;;;8.95;3.53;;;10.20;99.90;;;;;;4964223;28;20023;-78
2023/03/29 06:19:18;;;;;;;10.88;4.03;;;10.30;99.90;;;;;;4973818;28;20486;-78
2023/03/29 06:21:43;;;;;;;10.65;4.32;;;10.30;99.90;;;;;;4950465;28;20046;-78
2023/03/29 06:24:09;;;;;;;13.68;4.40;;;10.30;99.90;;;;;;4964615;28;20031;-78
2023/03/29 06:26:34;;;;;;;10.70;4.35;;;10.30;99.90;;;;;;4958363;28;20042;-77
2023/03/29 06:29:00;;;;;;;9.13;3.72;;;10.20;99.90;;;;;;4963851;28;20026;-78
2023/03/29 06:31:25;;;;;;;11.13;3.90;;;10.30;99.90;;;;;;4961363;28;20421;-78
2023/03/29 06:33:51;;;;;;;9.18;4.15;;;10.30;99.90;;;;;;4960492;28;20099;-77
2023/03/29 06:36:17;;;;;;;9.02;2.88;;;10.30;99.90;;;;;;4956927;28;20026;-79
2023/03/29 06:38:44;;;;;;;9.55;4.03;;;10.40;99.90;;;;;;4967327;28;20385;-78
2023/03/29 06:41:10;;;;;;;10.90;3.67;;;10.40;99.90;;;;;;4968709;28;20018;-79
2023/03/29 06:43:36;;;;;;;10.48;3.10;;;10.30;99.90;;;;;;4965167;28;20049;-78
2023/03/29 06:46:02;;;;;;;11.93;3.50;;;10.30;99.90;;;;;;4960370;28;20027;-78
2023/03/29 06:48:28;;;;;;;12.88;3.40;;;10.30;99.90;;;;;;4963996;28;20034;-79
2023/03/29 06:50:54;;;;;;;8.80;3.30;;;10.30;99.90;;;;;;4955657;28;20121;-79
2023/03/29 06:53:20;;;;;;;6.90;2.72;;;10.20;99.90;;;;;;4945631;28;20037;-78
2023/03/29 06:55:46;;;;;;;11.13;3.20;;;10.20;99.90;;;;;;4954653;28;20033;-78
2023/03/29 06:58:12;;;;;;;13.23;3.10;;;10.20;99.90;;;;;;4920141;28;1092726;-78
2023/03/29 07:00:38;;;;;;;5.57;2.65;;;10.30;99.90;;;;;;4948516;28;20042;-78
2023/03/29 07:03:12;;;;;;;7.90;2.60;;;10.30;99.90;;;;;;4956217;28;20026;-78
2023/03/29 07:05:40;;;;;;;5.38;2.50;;;10.30;99.90;;;;;;4957051;28;20023;-78
2023/03/29 07:10:38;;;;;;;9.93;2.95;;;10.40;99.90;;;;;;4974735;28;20080;-78
2023/03/29 07:13:11;;;;;;;9.77;3.85;;;10.30;99.90;;;;;;4978076;28;20035;-78
2023/03/29 07:15:38;;;;;;;8.82;3.10;;;10.20;99.90;;;;;;4964663;28;20418;-78
2023/03/29 07:18:03;;;;;;;10.45;3.00;;;10.20;99.90;;;;;;4965739;28;20039;-78
2023/03/29 07:20:30;;;;;;;9.10;2.70;;;10.30;99.90;;;;;;4947793;28;20022;-78
2023/03/29 07:22:56;;;;;;;11.27;3.75;;;10.30;99.90;;;;;;4957866;28;20038;-79
2023/03/29 07:25:24;;;;;;;10.75;3.05;;;10.40;99.90;;;;;;4963191;28;20026;-78
2023/03/29 07:27:53;;;;;;;13.57;3.55;;;10.50;99.90;;;;;;4958790;28;20415;-79
2023/03/29 07:30:21;;;;;;;9.57;3.40;;;10.60;99.90;;;;;;4960238;28;20039;-78
2023/03/29 07:32:49;;;;;;;21.15;3.22;;;10.60;99.90;;;;;;4962994;28;20026;-78
2023/03/29 07:35:16;;;;;;;12.00;3.08;;;10.80;99.90;;;;;;4963718;28;20035;-77
2023/03/29 07:37:43;;;;;;;13.35;3.05;;;10.90;99.90;;;;;;4948618;28;20061;-79
2023/03/29 07:40:15;;;;;;;14.70;3.78;;;10.90;99.90;;;;;;4963757;28;20031;-79
2023/03/29 07:42:44;;;;;;;12.15;3.50;;;10.90;99.90;;;;;;4948388;28;20093;-78
2023/03/29 07:45:12;;;;;;;7.30;3.17;;;10.90;99.90;;;;;;4963545;28;20078;-79
2023/03/29 07:47:39;;;;;;;10.43;3.25;;;11.00;99.90;;;;;;4951163;28;20035;-78
2023/03/29 07:50:06;;;;;;;15.73;3.50;;;11.00;99.90;;;;;;4948266;28;20046;-79
2023/03/29 07:52:32;;;;;;;11.43;3.22;;;11.10;99.90;;;;;;4961054;28;20035;-77
2023/03/29 07:54:58;;;;;;;11.48;3.38;;;11.30;99.90;;;;;;4959445;28;20026;-78
2023/03/29 07:57:25;;;;;;;7.10;2.88;;;11.50;99.90;;;;;;4955096;28;20103;-77
2023/03/29 07:59:51;;;;;;;9.07;3.65;;;11.60;99.90;;;;;;4956695;28;20053;-78
2023/03/29 08:02:18;;;;;;;10.60;3.75;;;11.60;99.90;;;;;;4957990;28;20065;-78
2023/03/29 08:04:44;;;;;;;9.73;3.58;;;11.50;99.90;;;;;;4967399;28;20058;-78
2023/03/29 08:07:11;;;;;;;9.32;4.20;;;11.50;99.90;;;;;;4969478;28;20035;-78
2023/03/29 08:09:37;;;;;;;7.22;3.53;;;11.60;99.90;;;;;;4963041;28;20078;-78
2023/03/29 08:12:03;;;;;;;9.77;4.10;;;11.70;99.90;;;;;;4962388;28;20482;-78
2023/03/29 08:14:29;;;;;;;10.23;4.20;;;11.50;99.90;;;;;;4958527;28;20039;-78
2023/03/29 08:16:54;;;;;;;11.95;4.20;;;11.50;99.90;;;;;;4959883;28;20267;-78
2023/03/29 08:19:20;;;;;;;12.50;4.25;;;11.50;99.90;;;;;;4942479;28;20087;-78
2023/03/29 08:21:46;;;;;;;11.88;4.30;;;11.50;99.90;;;;;;4938539;28;20027;-78
2023/03/29 08:24:12;;;;;;;8.27;3.88;;;11.60;99.90;;;;;;4955538;28;20031;-78
2023/03/29 08:26:38;;;;;;;7.05;3.60;;;11.60;99.90;;;;;;4950258;28;20031;-80
2023/03/29 08:29:03;;;;;;;6.50;3.67;;;11.60;99.90;;;;;;4950032;28;20521;-79
2023/03/29 08:31:29;;;;;;;6.13;3.95;;;11.60;99.90;;;;;;4960583;28;20093;-79
2023/03/29 08:33:55;;;;;;;5.53;3.28;;;11.60;99.90;;;;;;4952955;28;20035;-78
2023/03/29 08:36:20;;;;;;;4.93;2.83;;;11.70;99.90;;;;;;4958639;28;20040;-78
2023/03/29 08:38:46;;;;;;;6.25;3.20;;;11.80;99.90;;;;;;4961717;28;20027;-78
2023/03/29 08:41:42;;;;;;;4.78;2.65;;;11.80;99.90;;;;;;4957717;28;20414;-78
2023/03/29 08:44:28;;;;;;;5.93;2.90;;;11.70;99.90;;;;;;4948282;28;20066;-78
2023/03/29 08:47:14;;;;;;;4.13;2.90;;;11.80;99.90;;;;;;4965161;28;20027;-77
2023/03/29 08:49:42;;;;;;;6.50;2.90;;;11.80;99.90;;;;;;4953895;28;20597;-78
2023/03/29 08:52:30;;;;;;;4.07;2.80;;;11.80;99.90;;;;;;4959277;28;20041;-77
2023/03/29 08:54:58;;;;;;;5.32;3.40;;;11.70;99.90;;;;;;4957991;28;20739;-78
2023/03/29 08:57:31;;;;;;;5.15;3.55;;;11.70;99.90;;;;;;4958648;28;20066;-78
2023/03/29 09:00:00;;;;;;;7.53;4.20;;;11.70;99.90;;;;;;4955306;28;20717;-78
2023/03/29 09:02:30;;;;;;;8.15;4.03;;;11.70;99.90;;;;;;4940459;28;20034;-79
2023/03/29 09:05:21;;;;;;;9.85;4.65;;;11.80;99.90;;;;;;4965042;28;20030;-78
2023/03/29 09:07:47;;;;;;;9.88;4.15;;;11.80;99.90;;;;;;4930748;29;20043;-78
2023/03/29 09:10:17;;;;;;;9.75;4.30;;;11.80;99.90;;;;;;4965554;28;20047;-79
2023/03/29 09:12:58;;;;;;;8.43;3.95;;;11.80;99.90;;;;;;4978493;28;20069;-78
2023/03/29 09:15:32;;;;;;;12.93;4.55;;;11.80;99.90;;;;;;4967269;28;20534;-77
2023/03/29 09:18:10;;;;;;;16.15;5.18;;;11.90;99.90;;;;;;4958785;28;20045;-78
2023/03/29 09:20:56;;;;;;;19.02;5.53;;;11.80;99.90;;;;;;4970578;28;20110;-78
2023/03/29 09:23:43;;;;;;;14.38;5.32;;;11.80;99.90;;;;;;4950333;28;20079;-78
2023/03/29 09:26:11;;;;;;;18.77;5.68;;;11.90;99.90;;;;;;4959090;28;20076;-78
2023/03/29 09:29:08;;;;;;;15.23;5.05;;;11.80;99.90;;;;;;4947482;29;20027;-78
2023/03/29 09:31:42;;;;;;;21.08;6.15;;;11.80;99.90;;;;;;4963949;28;20490;-78
2023/03/29 09:34:13;;;;;;;16.42;5.40;;;11.90;99.90;;;;;;4936610;28;20045;-78
2023/03/29 09:36:56;;;;;;;12.02;5.70;;;12.00;99.90;;;;;;4959812;28;20141;-78
2023/03/29 09:39:22;;;;;;;19.02;5.70;;;12.10;99.90;;;;;;4958022;28;20030;-78
2023/03/29 09:41:56;;;;;;;18.27;5.55;;;12.30;99.90;;;;;;4955364;28;20030;-78
2023/03/29 09:44:24;;;;;;;21.73;6.30;;;12.40;99.90;;;;;;4958408;28;20035;-78
2023/03/29 09:46:56;;;;;;;23.42;5.45;;;12.40;99.90;;;;;;4955369;28;20118;-77
2023/03/29 09:49:27;;;;;;;20.70;5.25;;;12.40;99.90;;;;;;4961861;28;22297;-78
2023/03/29 09:51:58;;;;;;;25.07;6.00;;;12.50;99.90;;;;;;4956878;28;20960;-78
2023/03/29 09:54:24;;;;;;;24.13;6.55;;;12.50;99.90;;;;;;4958705;28;20289;-78
2023/03/29 09:56:51;;;;;;;22.25;6.05;;;12.50;99.90;;;;;;4960181;28;20046;-78
2023/03/29 09:59:16;;;;;;;23.23;5.63;;;12.50;99.90;;;;;;4961272;28;20043;-78
2023/03/29 10:01:45;;;;;;;21.85;5.70;;;12.50;99.90;;;;;;4955941;28;20064;-78
2023/03/29 10:04:12;;;;;;;21.52;5.28;;;12.50;99.90;;;;;;4957843;28;20031;-78
2023/03/29 10:06:48;;;;;;;28.65;5.82;;;12.50;99.90;;;;;;4960350;28;20031;-77
2023/03/29 10:09:21;;;;;;;24.25;5.50;;;12.50;99.90;;;;;;4960355;28;20035;-78
2023/03/29 10:12:01;;;;;;;16.20;5.30;;;12.40;99.90;;;;;;4949103;28;20037;-78
2023/03/29 10:14:29;;;;;;;23.98;4.90;;;12.40;99.90;;;;;;4951025;28;20906;-77
2023/03/29 10:16:56;;;;;;;19.20;5.20;;;12.50;99.90;;;;;;4962811;28;20086;-77
2023/03/29 10:19:26;;;;;;;17.13;4.63;;;12.40;99.90;;;;;;4965649;28;20125;-77
2023/03/29 10:21:53;;;;;;;22.17;5.00;;;12.60;99.90;;;;;;4947415;28;20022;-78
2023/03/29 10:24:21;;;;;;;20.42;4.80;;;12.80;99.90;;;;;;4959939;28;20041;-78
2023/03/29 10:26:54;;;;;;;26.38;5.18;;;12.80;99.90;;;;;;4946300;28;20023;-77
2023/03/29 10:29:20;;;;;;;17.83;4.18;;;12.90;99.90;;;;;;4954745;28;20053;-78
2023/03/29 10:31:46;;;;;;;17.75;4.50;;;13.00;99.90;;;;;;4960743;28;20039;-78
2023/03/29 10:34:15;;;;;;;16.38;4.32;;;13.10;99.90;;;;;;4962089;28;20113;-78
2023/03/29 10:36:43;;;;;;;20.92;4.82;;;13.00;99.90;;;;;;4955597;28;20031;-77
2023/03/29 10:39:11;;;;;;;18.52;4.47;;;13.00;99.90;;;;;;4957299;28;20086;-77
2023/03/29 10:41:37;;;;;;;14.55;3.92;;;13.00;99.90;;;;;;4961695;28;20049;-78
2023/03/29 10:44:05;;;;;;;17.63;5.05;;;12.90;99.90;;;;;;4964986;28;20034;-79
2023/03/29 10:46:39;;;;;;;22.15;4.50;;;12.90;99.90;;;;;;4278468;28;10000699;-77
2023/03/29 10:49:14;;;;;;;13.10;4.20;;;12.90;99.90;;;;;;4964389;28;20545;-76
2023/03/29 10:51:44;;;;;;;16.83;4.47;;;13.00;99.90;;;;;;4964666;28;20043;-78
2023/03/29 10:54:13;;;;;;;21.80;4.72;;;13.10;99.90;;;;;;4965784;28;20061;-78
2023/03/29 10:56:42;;;;;;;19.63;4.43;;;13.20;99.90;;;;;;4963424;28;20030;-78
2023/03/29 10:59:27;;;;;;;14.30;3.60;;;13.30;99.90;;;;;;4964523;28;20918;-78
2023/03/29 11:01:56;;;;;;;17.30;4.43;;;13.70;99.90;;;;;;4966527;28;20109;-77
2023/03/29 11:04:46;;;;;;;19.20;3.70;;;13.90;99.90;;;;;;4966367;28;20027;-78
2023/03/29 11:07:30;;;;;;;18.00;4.03;;;13.90;99.90;;;;;;4948537;28;20076;-79
2023/03/29 11:10:09;;;;;;;19.05;4.03;;;14.00;99.90;;;;;;4965741;28;20117;-78
2023/03/29 11:12:50;;;;;;;12.43;3.85;;;13.60;99.90;;;;;;4965869;28;20026;-78
2023/03/29 11:15:41;;;;;;;12.85;3.95;;;13.30;99.90;;;;;;4967262;28;20533;-79
2023/03/29 11:18:49;;;;;;;15.50;3.95;;;13.10;99.90;;;;;;4930963;28;20043;-78
2023/03/29 11:21:26;;;;;;;17.77;4.00;;;13.10;99.90;;;;;;4947167;29;20035;-79
2023/03/29 11:24:16;;;;;;;16.25;3.95;;;13.20;99.90;;;;;;4947958;29;20039;-78
2023/03/29 11:27:03;;;;;;;21.77;4.65;;;13.10;99.90;;;;;;4948038;28;20661;-78
2023/03/29 11:29:29;;;;;;;15.20;3.97;;;13.30;99.90;;;;;;4952516;28;20078;-78
2023/03/29 11:32:20;;;;;;;10.35;3.83;;;13.40;99.90;;;;;;4966841;28;20140;-78
2023/03/29 11:35:07;;;;;;;14.02;4.10;;;13.40;99.90;;;;;;4960156;28;20070;-78
2023/03/29 11:37:43;;;;;;;15.98;4.03;;;13.50;99.90;;;;;;4951424;28;20031;-78
2023/03/29 11:40:36;;;;;;;15.35;3.50;;;13.80;99.90;;;;;;4963756;28;20114;-78
2023/03/29 11:43:24;;;;;;;17.63;4.28;;;13.90;99.90;;;;;;4955653;28;20054;-79
2023/03/29 11:45:54;;;;;;;18.92;4.07;;;14.10;99.90;;;;;;4921602;28;20050;-78
2023/03/29 11:48:38;;;;;;;16.98;3.85;;;14.40;99.90;;;;;;4961338;28;20026;-79
2023/03/29 11:51:13;;;;;;;9.25;3.80;;;14.30;99.90;;;;;;4962045;28;20046;-79
2023/03/29 11:54:03;;;;;;;11.93;4.10;;;14.40;99.90;;;;;;4961172;28;20062;-78
2023/03/29 11:56:38;;;;;;;11.50;3.67;;;14.50;99.90;;;;;;4964696;28;20121;-80
2023/03/29 11:59:23;;;;;;;12.18;3.72;;;14.70;99.90;;;;;;4961261;28;20531;-79
2023/03/29 12:01:55;;;;;;;12.85;3.60;;;14.80;99.90;;;;;;4964592;28;20019;-79
2023/03/29 12:04:28;;;;;;;13.90;3.65;;;15.00;99.90;;;;;;4954016;28;20039;-79
2023/03/29 12:07:02;;;;;;;11.88;4.00;;;15.10;99.90;;;;;;4967559;28;20562;-80
2023/03/29 12:09:40;;;;;;;15.20;4.05;;;15.20;99.90;;;;;;4962001;28;20039;-79
2023/03/29 12:12:23;;;;;;;12.38;3.58;;;15.40;99.90;;;;;;4971416;28;20510;-79
2023/03/29 12:15:09;;;;;;;11.50;3.38;;;15.90;99.90;;;;;;4966688;28;20077;-80
2023/03/29 12:17:48;;;;;;;9.00;2.72;;;16.40;99.90;;;;;;4961022;28;20110;-79
2023/03/29 12:20:22;;;;;;;17.75;3.38;;;16.40;99.90;;;;;;4963093;28;20065;-79
2023/03/29 12:22:49;;;;;;;13.40;3.17;;;16.50;99.90;;;;;;4980629;28;20033;-79
2023/03/29 12:25:22;;;;;;;11.60;3.10;;;16.80;99.90;;;;;;4969823;28;20094;-78
2023/03/29 12:28:12;;;;;;;8.80;2.80;;;16.70;99.90;;;;;;4971568;28;20042;-79
2023/03/29 12:30:57;;;;;;;10.32;3.42;;;16.60;99.90;;;;;;4964695;28;20085;-81
2023/03/29 12:33:53;;;;;;;14.27;3.45;;;16.70;99.90;;;;;;4945987;28;20039;-78
2023/03/29 12:36:42;;;;;;;13.75;3.70;;;16.60;99.90;;;;;;4954447;28;20082;-78
2023/03/29 12:39:19;;;;;;;9.77;3.17;;;16.70;99.90;;;;;;4955494;28;20573;-79
2023/03/29 12:41:47;;;;;;;12.43;3.00;;;17.10;99.90;;;;;;4969805;28;20054;-79
2023/03/29 12:44:21;;;;;;;15.57;3.15;;;17.30;99.90;;;;;;4968967;28;20039;-80
2023/03/29 12:46:52;;;;;;;8.38;2.72;;;17.20;98.10;;;;;;4968819;28;20030;-79
2023/03/29 12:49:36;;;;;;;9.82;2.95;;;17.20;96.80;;;;;;4967714;28;20773;-81
2023/03/29 12:52:12;;;;;;;12.73;2.55;;;17.00;97.30;;;;;;4946150;28;20129;-79
2023/03/29 12:54:38;;;;;;;8.68;2.60;;;16.90;98.10;;;;;;4968636;28;20035;-79
2023/03/29 12:57:26;;;;;;;11.73;2.78;;;16.80;98.70;;;;;;4964661;28;20057;-77
2023/03/29 12:59:52;;;;;;;8.70;2.85;;;17.00;99.10;;;;;;4967454;28;20554;-78
2023/03/29 13:02:17;;;;;;;12.82;3.13;;;17.00;97.40;;;;;;4973974;28;20038;-78
2023/03/29 13:04:49;;;;;;;7.60;2.00;;;16.90;99.90;;;;;;4968183;28;20031;-79